sensor_id;sensor_type;location;lat;lon;timestamp;P1;durP1;ratioP1;P2;durP2;ratioP2
70337;SDS011;57757;53.198;19.646;2023-06-26T00:00:42;10.30;;;5.70;;
70337;SDS011;57757;53.198;19.646;2023-06-26T00:03:28;10.20;;;5.60;;
70337;SDS011;57757;53.198;19.646;2023-06-26T00:05:55;10.60;;;5.50;;
70337;SDS011;57757;53.198;19.646;2023-06-26T00:08:24;10.70;;;5.90;;
70337;SDS011;57757;53.198;19.646;2023-06-26T00:10:50;11.10;;;5.20;;
70337;SDS011;57757;53.198;19.646;2023-06-26T00:13:17;11.00;;;4.80;;
70337;SDS011;57757;53.198;19.646;2023-06-26T00:15:43;11.00;;;5.60;;
70337;SDS011;57757;53.198;19.646;2023-06-26T00:18:09;11.00;;;5.60;;
70337;SDS011;57757;53.198;19.646;2023-06-26T00:20:35;12.10;;;5.50;;
70337;SDS011;57757;53.198;19.646;2023-06-26T00:23:02;11.90;;;6.20;;
70337;SDS011;57757;53.198;19.646;2023-06-26T00:25:29;10.00;;;5.30;;
70337;SDS011;57757;53.198;19.646;2023-06-26T00:27:55;11.90;;;5.90;;
70337;SDS011;57757;53.198;19.646;2023-06-26T00:30:21;10.50;;;5.80;;
70337;SDS011;57757;53.198;19.646;2023-06-26T00:32:47;10.80;;;6.00;;
70337;SDS011;57757;53.198;19.646;2023-06-26T00:35:13;10.90;;;6.00;;
70337;SDS011;57757;53.198;19.646;2023-06-26T00:37:39;10.10;;;5.60;;
70337;SDS011;57757;53.198;19.646;2023-06-26T00:40:05;11.30;;;5.50;;
70337;SDS011;57757;53.198;19.646;2023-06-26T00:42:32;12.00;;;5.70;;
70337;SDS011;57757;53.198;19.646;2023-06-26T00:44:58;13.40;;;6.30;;
70337;SDS011;57757;53.198;19.646;2023-06-26T00:47:24;11.70;;;5.90;;
70337;SDS011;57757;53.198;19.646;2023-06-26T00:49:51;11.00;;;5.40;;
70337;SDS011;57757;53.198;19.646;2023-06-26T00:52:17;10.50;;;5.80;;
70337;SDS011;57757;53.198;19.646;2023-06-26T00:54:44;12.70;;;5.80;;
70337;SDS011;57757;53.198;19.646;2023-06-26T00:57:10;10.80;;;6.10;;
70337;SDS011;57757;53.198;19.646;2023-06-26T00:59:36;11.80;;;6.60;;
70337;SDS011;57757;53.198;19.646;2023-06-26T01:02:02;11.80;;;5.60;;
70337;SDS011;57757;53.198;19.646;2023-06-26T01:04:28;10.80;;;5.40;;
70337;SDS011;57757;53.198;19.646;2023-06-26T01:06:59;11.80;;;5.90;;
70337;SDS011;57757;53.198;19.646;2023-06-26T01:09:25;11.70;;;5.70;;
70337;SDS011;57757;53.198;19.646;2023-06-26T01:11:52;11.20;;;5.90;;
70337;SDS011;57757;53.198;19.646;2023-06-26T01:14:18;13.00;;;6.20;;
70337;SDS011;57757;53.198;19.646;2023-06-26T01:16:44;11.50;;;5.60;;
70337;SDS011;57757;53.198;19.646;2023-06-26T01:19:14;12.20;;;5.70;;
70337;SDS011;57757;53.198;19.646;2023-06-26T01:24:54;11.10;;;5.90;;
70337;SDS011;57757;53.198;19.646;2023-06-26T01:27:29;12.30;;;6.00;;
70337;SDS011;57757;53.198;19.646;2023-06-26T01:29:58;11.60;;;5.80;;
70337;SDS011;57757;53.198;19.646;2023-06-26T01:32:28;10.90;;;6.00;;
70337;SDS011;57757;53.198;19.646;2023-06-26T01:34:55;11.50;;;6.00;;
70337;SDS011;57757;53.198;19.646;2023-06-26T01:37:22;12.30;;;6.30;;
70337;SDS011;57757;53.198;19.646;2023-06-26T01:39:48;12.30;;;6.00;;
70337;SDS011;57757;53.198;19.646;2023-06-26T01:42:15;12.20;;;5.80;;
70337;SDS011;57757;53.198;19.646;2023-06-26T01:44:44;13.10;;;6.00;;
70337;SDS011;57757;53.198;19.646;2023-06-26T01:47:11;14.20;;;6.50;;
70337;SDS011;57757;53.198;19.646;2023-06-26T01:49:47;12.90;;;6.50;;
70337;SDS011;57757;53.198;19.646;2023-06-26T01:52:25;13.40;;;6.70;;
70337;SDS011;57757;53.198;19.646;2023-06-26T01:57:36;12.00;;;6.60;;
70337;SDS011;57757;53.198;19.646;2023-06-26T02:00:05;12.00;;;6.30;;
70337;SDS011;57757;53.198;19.646;2023-06-26T02:02:35;11.10;;;6.60;;
70337;SDS011;57757;53.198;19.646;2023-06-26T02:05:02;12.20;;;6.50;;
70337;SDS011;57757;53.198;19.646;2023-06-26T02:07:28;12.50;;;6.80;;
70337;SDS011;57757;53.198;19.646;2023-06-26T02:09:54;14.00;;;6.60;;
70337;SDS011;57757;53.198;19.646;2023-06-26T02:12:21;11.10;;;6.00;;
70337;SDS011;57757;53.198;19.646;2023-06-26T02:14:47;12.10;;;6.20;;
70337;SDS011;57757;53.198;19.646;2023-06-26T02:17:13;13.20;;;6.70;;
70337;SDS011;57757;53.198;19.646;2023-06-26T02:19:39;12.10;;;6.30;;
70337;SDS011;57757;53.198;19.646;2023-06-26T02:22:11;11.90;;;6.50;;
70337;SDS011;57757;53.198;19.646;2023-06-26T02:24:36;13.80;;;6.10;;
70337;SDS011;57757;53.198;19.646;2023-06-26T02:27:03;15.40;;;7.20;;
70337;SDS011;57757;53.198;19.646;2023-06-26T02:29:29;13.50;;;6.60;;
70337;SDS011;57757;53.198;19.646;2023-06-26T02:31:55;13.00;;;6.50;;
70337;SDS011;57757;53.198;19.646;2023-06-26T02:34:21;11.70;;;6.50;;
70337;SDS011;57757;53.198;19.646;2023-06-26T02:36:47;14.00;;;6.40;;
70337;SDS011;57757;53.198;19.646;2023-06-26T02:39:13;12.90;;;7.00;;
70337;SDS011;57757;53.198;19.646;2023-06-26T02:41:40;12.50;;;6.60;;
70337;SDS011;57757;53.198;19.646;2023-06-26T02:44:06;13.20;;;6.50;;
70337;SDS011;57757;53.198;19.646;2023-06-26T02:46:32;13.20;;;7.00;;
70337;SDS011;57757;53.198;19.646;2023-06-26T02:48:59;14.90;;;6.70;;
70337;SDS011;57757;53.198;19.646;2023-06-26T02:51:25;14.10;;;6.50;;
70337;SDS011;57757;53.198;19.646;2023-06-26T02:53:51;13.70;;;6.90;;
70337;SDS011;57757;53.198;19.646;2023-06-26T02:56:17;13.60;;;7.30;;
70337;SDS011;57757;53.198;19.646;2023-06-26T02:58:43;33.00;;;7.80;;
70337;SDS011;57757;53.198;19.646;2023-06-26T03:01:09;15.30;;;6.90;;
70337;SDS011;57757;53.198;19.646;2023-06-26T03:03:35;14.30;;;7.10;;
70337;SDS011;57757;53.198;19.646;2023-06-26T03:06:06;13.50;;;7.10;;
70337;SDS011;57757;53.198;19.646;2023-06-26T03:08:34;14.20;;;7.10;;
70337;SDS011;57757;53.198;19.646;2023-06-26T03:11:02;15.30;;;7.10;;
70337;SDS011;57757;53.198;19.646;2023-06-26T03:13:28;15.60;;;7.50;;
70337;SDS011;57757;53.198;19.646;2023-06-26T03:15:54;14.60;;;6.70;;
70337;SDS011;57757;53.198;19.646;2023-06-26T03:18:20;13.60;;;7.70;;
70337;SDS011;57757;53.198;19.646;2023-06-26T03:20:46;26.00;;;8.20;;
70337;SDS011;57757;53.198;19.646;2023-06-26T03:23:12;12.30;;;6.60;;
70337;SDS011;57757;53.198;19.646;2023-06-26T03:25:38;14.20;;;7.30;;
70337;SDS011;57757;53.198;19.646;2023-06-26T03:28:04;13.00;;;7.10;;
70337;SDS011;57757;53.198;19.646;2023-06-26T03:30:30;13.80;;;7.10;;
70337;SDS011;57757;53.198;19.646;2023-06-26T03:32:56;14.70;;;7.60;;
70337;SDS011;57757;53.198;19.646;2023-06-26T03:35:22;13.40;;;7.20;;
70337;SDS011;57757;53.198;19.646;2023-06-26T03:37:49;12.80;;;7.20;;
70337;SDS011;57757;53.198;19.646;2023-06-26T03:40:15;12.90;;;7.10;;
70337;SDS011;57757;53.198;19.646;2023-06-26T03:42:42;14.90;;;7.30;;
70337;SDS011;57757;53.198;19.646;2023-06-26T03:45:08;13.20;;;7.10;;
70337;SDS011;57757;53.198;19.646;2023-06-26T03:47:34;11.70;;;6.60;;
70337;SDS011;57757;53.198;19.646;2023-06-26T03:50:00;13.00;;;7.60;;
70337;SDS011;57757;53.198;19.646;2023-06-26T03:52:26;15.00;;;8.00;;
70337;SDS011;57757;53.198;19.646;2023-06-26T03:54:52;13.60;;;7.20;;
70337;SDS011;57757;53.198;19.646;2023-06-26T03:57:18;14.20;;;7.00;;
70337;SDS011;57757;53.198;19.646;2023-06-26T03:59:45;13.30;;;7.30;;
70337;SDS011;57757;53.198;19.646;2023-06-26T04:02:11;16.10;;;7.70;;
70337;SDS011;57757;53.198;19.646;2023-06-26T04:04:38;13.90;;;7.30;;
70337;SDS011;57757;53.198;19.646;2023-06-26T04:07:04;12.80;;;7.10;;
70337;SDS011;57757;53.198;19.646;2023-06-26T04:09:31;15.30;;;8.30;;
70337;SDS011;57757;53.198;19.646;2023-06-26T04:11:57;15.00;;;7.70;;
70337;SDS011;57757;53.198;19.646;2023-06-26T04:14:23;14.80;;;8.40;;
70337;SDS011;57757;53.198;19.646;2023-06-26T04:16:49;16.50;;;8.50;;
70337;SDS011;57757;53.198;19.646;2023-06-26T04:19:15;14.10;;;8.50;;
70337;SDS011;57757;53.198;19.646;2023-06-26T04:21:41;17.00;;;8.50;;
70337;SDS011;57757;53.198;19.646;2023-06-26T04:24:07;17.10;;;8.00;;
70337;SDS011;57757;53.198;19.646;2023-06-26T04:26:33;13.60;;;7.80;;
70337;SDS011;57757;53.198;19.646;2023-06-26T04:28:59;16.40;;;8.10;;
70337;SDS011;57757;53.198;19.646;2023-06-26T04:31:26;14.80;;;8.10;;
70337;SDS011;57757;53.198;19.646;2023-06-26T04:33:52;13.80;;;7.90;;
70337;SDS011;57757;53.198;19.646;2023-06-26T04:36:20;14.90;;;7.80;;
70337;SDS011;57757;53.198;19.646;2023-06-26T04:38:46;14.40;;;7.80;;
70337;SDS011;57757;53.198;19.646;2023-06-26T04:41:15;15.40;;;7.00;;
70337;SDS011;57757;53.198;19.646;2023-06-26T04:43:41;13.50;;;6.80;;
70337;SDS011;57757;53.198;19.646;2023-06-26T04:46:07;12.70;;;6.90;;
70337;SDS011;57757;53.198;19.646;2023-06-26T04:48:34;14.10;;;7.40;;
70337;SDS011;57757;53.198;19.646;2023-06-26T04:51:00;13.50;;;7.20;;
70337;SDS011;57757;53.198;19.646;2023-06-26T04:53:26;13.60;;;6.70;;
70337;SDS011;57757;53.198;19.646;2023-06-26T04:55:52;12.90;;;6.80;;
70337;SDS011;57757;53.198;19.646;2023-06-26T04:58:19;13.60;;;6.70;;
70337;SDS011;57757;53.198;19.646;2023-06-26T05:00:45;11.60;;;6.20;;
70337;SDS011;57757;53.198;19.646;2023-06-26T05:03:12;12.70;;;7.00;;
70337;SDS011;57757;53.198;19.646;2023-06-26T05:05:39;11.70;;;6.40;;
70337;SDS011;57757;53.198;19.646;2023-06-26T05:10:48;11.60;;;6.60;;
70337;SDS011;57757;53.198;19.646;2023-06-26T05:13:15;11.80;;;6.20;;
70337;SDS011;57757;53.198;19.646;2023-06-26T05:15:43;12.70;;;6.20;;
70337;SDS011;57757;53.198;19.646;2023-06-26T05:18:10;14.50;;;6.10;;
70337;SDS011;57757;53.198;19.646;2023-06-26T05:20:36;13.20;;;6.00;;
70337;SDS011;57757;53.198;19.646;2023-06-26T05:23:03;11.20;;;5.90;;
70337;SDS011;57757;53.198;19.646;2023-06-26T05:25:30;12.70;;;5.90;;
70337;SDS011;57757;53.198;19.646;2023-06-26T05:27:58;14.10;;;6.00;;
70337;SDS011;57757;53.198;19.646;2023-06-26T05:30:24;11.40;;;6.10;;
70337;SDS011;57757;53.198;19.646;2023-06-26T05:32:52;11.60;;;6.10;;
70337;SDS011;57757;53.198;19.646;2023-06-26T05:35:22;11.00;;;6.00;;
70337;SDS011;57757;53.198;19.646;2023-06-26T05:37:49;13.20;;;6.20;;
70337;SDS011;57757;53.198;19.646;2023-06-26T05:40:16;13.10;;;6.00;;
70337;SDS011;57757;53.198;19.646;2023-06-26T05:42:43;23.00;;;7.20;;
70337;SDS011;57757;53.198;19.646;2023-06-26T05:45:10;12.10;;;6.10;;
70337;SDS011;57757;53.198;19.646;2023-06-26T05:47:37;13.60;;;5.90;;
70337;SDS011;57757;53.198;19.646;2023-06-26T05:50:03;12.00;;;5.80;;
70337;SDS011;57757;53.198;19.646;2023-06-26T05:52:30;11.40;;;5.70;;
70337;SDS011;57757;53.198;19.646;2023-06-26T05:54:56;14.20;;;6.00;;
70337;SDS011;57757;53.198;19.646;2023-06-26T05:57:29;11.80;;;6.00;;
70337;SDS011;57757;53.198;19.646;2023-06-26T05:59:56;12.40;;;5.60;;
70337;SDS011;57757;53.198;19.646;2023-06-26T06:02:22;12.90;;;6.30;;
70337;SDS011;57757;53.198;19.646;2023-06-26T06:04:48;11.60;;;5.70;;
70337;SDS011;57757;53.198;19.646;2023-06-26T06:07:15;10.00;;;5.90;;
70337;SDS011;57757;53.198;19.646;2023-06-26T06:09:41;11.70;;;5.90;;
70337;SDS011;57757;53.198;19.646;2023-06-26T06:12:07;11.60;;;5.50;;
70337;SDS011;57757;53.198;19.646;2023-06-26T06:14:34;10.50;;;5.00;;
70337;SDS011;57757;53.198;19.646;2023-06-26T06:17:00;10.30;;;5.30;;
70337;SDS011;57757;53.198;19.646;2023-06-26T06:19:27;9.50;;;5.20;;
70337;SDS011;57757;53.198;19.646;2023-06-26T06:21:53;10.90;;;5.60;;
70337;SDS011;57757;53.198;19.646;2023-06-26T06:24:19;11.80;;;5.50;;
70337;SDS011;57757;53.198;19.646;2023-06-26T06:26:46;9.90;;;5.10;;
70337;SDS011;57757;53.198;19.646;2023-06-26T06:29:12;11.40;;;5.30;;
70337;SDS011;57757;53.198;19.646;2023-06-26T06:31:38;10.20;;;5.40;;
70337;SDS011;57757;53.198;19.646;2023-06-26T06:34:04;10.70;;;5.20;;
70337;SDS011;57757;53.198;19.646;2023-06-26T06:36:30;9.20;;;5.30;;
70337;SDS011;57757;53.198;19.646;2023-06-26T06:38:56;9.90;;;4.70;;
70337;SDS011;57757;53.198;19.646;2023-06-26T06:41:22;12.10;;;4.90;;
70337;SDS011;57757;53.198;19.646;2023-06-26T06:43:49;8.40;;;4.10;;
70337;SDS011;57757;53.198;19.646;2023-06-26T06:46:15;8.90;;;4.00;;
70337;SDS011;57757;53.198;19.646;2023-06-26T06:48:41;10.40;;;3.60;;
70337;SDS011;57757;53.198;19.646;2023-06-26T06:51:07;7.50;;;3.70;;
70337;SDS011;57757;53.198;19.646;2023-06-26T06:53:35;8.60;;;3.90;;
70337;SDS011;57757;53.198;19.646;2023-06-26T06:56:01;9.80;;;4.30;;
70337;SDS011;57757;53.198;19.646;2023-06-26T06:58:28;8.80;;;3.50;;
70337;SDS011;57757;53.198;19.646;2023-06-26T07:00:54;9.50;;;4.40;;
70337;SDS011;57757;53.198;19.646;2023-06-26T07:03:21;8.50;;;3.90;;
70337;SDS011;57757;53.198;19.646;2023-06-26T07:05:48;8.10;;;4.10;;
70337;SDS011;57757;53.198;19.646;2023-06-26T07:08:14;7.60;;;3.70;;
70337;SDS011;57757;53.198;19.646;2023-06-26T07:10:40;9.00;;;4.30;;
70337;SDS011;57757;53.198;19.646;2023-06-26T07:13:06;10.70;;;4.10;;
70337;SDS011;57757;53.198;19.646;2023-06-26T07:15:32;8.00;;;4.20;;
70337;SDS011;57757;53.198;19.646;2023-06-26T07:17:59;9.20;;;3.80;;
70337;SDS011;57757;53.198;19.646;2023-06-26T07:20:25;9.00;;;3.90;;
70337;SDS011;57757;53.198;19.646;2023-06-26T07:22:52;9.50;;;4.30;;
70337;SDS011;57757;53.198;19.646;2023-06-26T07:25:18;9.20;;;4.50;;
70337;SDS011;57757;53.198;19.646;2023-06-26T07:27:44;8.40;;;3.60;;
70337;SDS011;57757;53.198;19.646;2023-06-26T07:30:11;9.00;;;4.10;;
70337;SDS011;57757;53.198;19.646;2023-06-26T07:32:37;12.50;;;4.20;;
70337;SDS011;57757;53.198;19.646;2023-06-26T07:35:04;7.70;;;3.90;;
70337;SDS011;57757;53.198;19.646;2023-06-26T07:37:30;8.60;;;3.90;;
70337;SDS011;57757;53.198;19.646;2023-06-26T07:39:56;21.00;;;14.60;;
70337;SDS011;57757;53.198;19.646;2023-06-26T07:42:23;9.50;;;5.10;;
70337;SDS011;57757;53.198;19.646;2023-06-26T07:44:49;8.40;;;3.90;;
70337;SDS011;57757;53.198;19.646;2023-06-26T07:47:15;7.90;;;4.10;;
70337;SDS011;57757;53.198;19.646;2023-06-26T07:49:41;9.10;;;3.60;;
70337;SDS011;57757;53.198;19.646;2023-06-26T07:52:07;10.80;;;4.10;;
70337;SDS011;57757;53.198;19.646;2023-06-26T07:54:36;8.30;;;4.10;;
70337;SDS011;57757;53.198;19.646;2023-06-26T07:57:03;9.10;;;4.30;;
70337;SDS011;57757;53.198;19.646;2023-06-26T07:59:34;8.80;;;4.50;;
70337;SDS011;57757;53.198;19.646;2023-06-26T08:02:01;8.40;;;3.60;;
70337;SDS011;57757;53.198;19.646;2023-06-26T08:04:28;7.80;;;3.90;;
70337;SDS011;57757;53.198;19.646;2023-06-26T08:07:00;8.10;;;3.50;;
70337;SDS011;57757;53.198;19.646;2023-06-26T08:09:28;8.10;;;3.50;;
70337;SDS011;57757;53.198;19.646;2023-06-26T08:11:55;8.30;;;3.70;;
70337;SDS011;57757;53.198;19.646;2023-06-26T08:14:21;9.30;;;3.30;;
70337;SDS011;57757;53.198;19.646;2023-06-26T08:16:49;8.50;;;3.30;;
70337;SDS011;57757;53.198;19.646;2023-06-26T08:19:16;8.50;;;3.10;;
70337;SDS011;57757;53.198;19.646;2023-06-26T08:21:43;7.90;;;3.70;;
70337;SDS011;57757;53.198;19.646;2023-06-26T08:24:10;10.10;;;3.70;;
70337;SDS011;57757;53.198;19.646;2023-06-26T08:26:38;6.80;;;3.10;;
70337;SDS011;57757;53.198;19.646;2023-06-26T08:29:05;8.00;;;3.30;;
70337;SDS011;57757;53.198;19.646;2023-06-26T08:31:37;7.50;;;3.10;;
70337;SDS011;57757;53.198;19.646;2023-06-26T08:34:04;6.90;;;3.50;;
70337;SDS011;57757;53.198;19.646;2023-06-26T08:36:31;7.80;;;3.20;;
70337;SDS011;57757;53.198;19.646;2023-06-26T08:38:58;9.80;;;3.30;;
70337;SDS011;57757;53.198;19.646;2023-06-26T08:41:24;8.10;;;3.30;;
70337;SDS011;57757;53.198;19.646;2023-06-26T08:43:50;8.30;;;3.20;;
70337;SDS011;57757;53.198;19.646;2023-06-26T08:46:18;6.90;;;3.10;;
70337;SDS011;57757;53.198;19.646;2023-06-26T08:48:48;9.10;;;3.40;;
70337;SDS011;57757;53.198;19.646;2023-06-26T08:51:19;9.40;;;3.60;;
70337;SDS011;57757;53.198;19.646;2023-06-26T08:53:56;7.70;;;3.40;;
70337;SDS011;57757;53.198;19.646;2023-06-26T08:56:22;7.30;;;3.00;;
70337;SDS011;57757;53.198;19.646;2023-06-26T08:58:49;8.90;;;3.70;;
70337;SDS011;57757;53.198;19.646;2023-06-26T09:01:16;7.00;;;3.50;;
70337;SDS011;57757;53.198;19.646;2023-06-26T09:03:43;8.90;;;3.50;;
70337;SDS011;57757;53.198;19.646;2023-06-26T09:06:09;8.40;;;3.10;;
70337;SDS011;57757;53.198;19.646;2023-06-26T09:08:35;7.50;;;3.40;;
70337;SDS011;57757;53.198;19.646;2023-06-26T09:11:01;7.50;;;3.20;;
70337;SDS011;57757;53.198;19.646;2023-06-26T09:13:28;9.20;;;3.70;;
70337;SDS011;57757;53.198;19.646;2023-06-26T09:15:56;7.30;;;3.40;;
70337;SDS011;57757;53.198;19.646;2023-06-26T09:18:23;8.90;;;3.30;;
70337;SDS011;57757;53.198;19.646;2023-06-26T09:20:49;7.00;;;3.20;;
70337;SDS011;57757;53.198;19.646;2023-06-26T09:23:16;8.30;;;3.50;;
70337;SDS011;57757;53.198;19.646;2023-06-26T09:25:42;8.30;;;3.30;;
70337;SDS011;57757;53.198;19.646;2023-06-26T09:28:10;7.50;;;3.20;;
70337;SDS011;57757;53.198;19.646;2023-06-26T09:30:36;8.60;;;3.50;;
70337;SDS011;57757;53.198;19.646;2023-06-26T09:35:46;8.60;;;4.00;;
70337;SDS011;57757;53.198;19.646;2023-06-26T09:38:13;7.60;;;3.50;;
70337;SDS011;57757;53.198;19.646;2023-06-26T09:40:40;8.40;;;3.70;;
70337;SDS011;57757;53.198;19.646;2023-06-26T09:43:09;7.70;;;2.90;;
70337;SDS011;57757;53.198;19.646;2023-06-26T09:45:39;7.80;;;3.30;;
70337;SDS011;57757;53.198;19.646;2023-06-26T09:48:07;9.90;;;3.80;;
70337;SDS011;57757;53.198;19.646;2023-06-26T09:50:34;8.20;;;3.00;;
70337;SDS011;57757;53.198;19.646;2023-06-26T09:53:09;7.70;;;3.80;;
70337;SDS011;57757;53.198;19.646;2023-06-26T09:55:36;8.50;;;3.90;;
70337;SDS011;57757;53.198;19.646;2023-06-26T09:58:03;9.30;;;3.80;;
70337;SDS011;57757;53.198;19.646;2023-06-26T10:00:30;7.90;;;3.40;;
70337;SDS011;57757;53.198;19.646;2023-06-26T10:03:00;6.60;;;3.10;;
70337;SDS011;57757;53.198;19.646;2023-06-26T10:05:27;6.80;;;3.00;;
70337;SDS011;57757;53.198;19.646;2023-06-26T10:07:54;12.60;;;6.40;;
70337;SDS011;57757;53.198;19.646;2023-06-26T10:10:22;12.60;;;4.20;;
70337;SDS011;57757;53.198;19.646;2023-06-26T10:12:49;14.00;;;6.70;;
70337;SDS011;57757;53.198;19.646;2023-06-26T10:15:20;7.40;;;3.70;;
70337;SDS011;57757;53.198;19.646;2023-06-26T10:17:49;9.50;;;3.80;;
70337;SDS011;57757;53.198;19.646;2023-06-26T10:20:16;13.50;;;6.10;;
70337;SDS011;57757;53.198;19.646;2023-06-26T10:22:44;24.70;;;10.40;;
70337;SDS011;57757;53.198;19.646;2023-06-26T10:25:12;8.20;;;4.00;;
70337;SDS011;57757;53.198;19.646;2023-06-26T10:27:46;44.40;;;19.30;;
70337;SDS011;57757;53.198;19.646;2023-06-26T10:30:17;29.60;;;12.40;;
70337;SDS011;57757;53.198;19.646;2023-06-26T10:32:48;15.30;;;7.20;;
70337;SDS011;57757;53.198;19.646;2023-06-26T10:35:15;7.80;;;3.90;;
70337;SDS011;57757;53.198;19.646;2023-06-26T10:37:43;11.50;;;5.40;;
70337;SDS011;57757;53.198;19.646;2023-06-26T10:40:14;9.50;;;4.00;;
70337;SDS011;57757;53.198;19.646;2023-06-26T10:42:47;9.20;;;4.20;;
70337;SDS011;57757;53.198;19.646;2023-06-26T10:45:17;10.00;;;4.60;;
70337;SDS011;57757;53.198;19.646;2023-06-26T10:47:47;7.40;;;3.60;;
70337;SDS011;57757;53.198;19.646;2023-06-26T10:53:07;6.30;;;2.70;;
70337;SDS011;57757;53.198;19.646;2023-06-26T10:55:43;6.50;;;2.90;;
70337;SDS011;57757;53.198;19.646;2023-06-26T11:06:24;7.30;;;3.40;;
70337;SDS011;57757;53.198;19.646;2023-06-26T11:08:51;7.10;;;3.30;;
70337;SDS011;57757;53.198;19.646;2023-06-26T11:11:20;6.30;;;3.10;;
70337;SDS011;57757;53.198;19.646;2023-06-26T11:13:47;6.20;;;3.10;;
70337;SDS011;57757;53.198;19.646;2023-06-26T11:16:14;5.80;;;3.00;;
70337;SDS011;57757;53.198;19.646;2023-06-26T11:18:41;7.10;;;3.70;;
70337;SDS011;57757;53.198;19.646;2023-06-26T11:21:08;6.40;;;3.70;;
70337;SDS011;57757;53.198;19.646;2023-06-26T11:23:40;6.50;;;3.60;;
70337;SDS011;57757;53.198;19.646;2023-06-26T11:28:52;6.50;;;3.80;;
70337;SDS011;57757;53.198;19.646;2023-06-26T11:33:56;8.00;;;4.20;;
70337;SDS011;57757;53.198;19.646;2023-06-26T11:36:24;6.90;;;3.70;;
70337;SDS011;57757;53.198;19.646;2023-06-26T11:41:22;6.60;;;3.70;;
70337;SDS011;57757;53.198;19.646;2023-06-26T11:43:50;7.20;;;4.40;;
70337;SDS011;57757;53.198;19.646;2023-06-26T11:46:18;6.60;;;3.80;;
70337;SDS011;57757;53.198;19.646;2023-06-26T11:48:47;7.70;;;4.00;;
70337;SDS011;57757;53.198;19.646;2023-06-26T11:51:15;7.00;;;3.90;;
70337;SDS011;57757;53.198;19.646;2023-06-26T11:53:42;7.50;;;4.20;;
70337;SDS011;57757;53.198;19.646;2023-06-26T11:56:10;8.10;;;4.60;;
70337;SDS011;57757;53.198;19.646;2023-06-26T12:01:39;7.00;;;4.10;;
70337;SDS011;57757;53.198;19.646;2023-06-26T12:04:08;6.30;;;4.10;;
70337;SDS011;57757;53.198;19.646;2023-06-26T12:06:37;6.50;;;4.40;;
70337;SDS011;57757;53.198;19.646;2023-06-26T12:09:06;6.90;;;4.30;;
70337;SDS011;57757;53.198;19.646;2023-06-26T12:11:36;7.20;;;4.60;;
70337;SDS011;57757;53.198;19.646;2023-06-26T12:14:04;7.70;;;4.80;;
70337;SDS011;57757;53.198;19.646;2023-06-26T12:16:33;7.80;;;4.30;;
70337;SDS011;57757;53.198;19.646;2023-06-26T12:19:03;8.20;;;5.00;;
70337;SDS011;57757;53.198;19.646;2023-06-26T12:24:03;9.70;;;5.20;;
70337;SDS011;57757;53.198;19.646;2023-06-26T12:26:33;7.80;;;4.20;;
70337;SDS011;57757;53.198;19.646;2023-06-26T12:29:07;8.40;;;4.60;;
70337;SDS011;57757;53.198;19.646;2023-06-26T12:31:43;8.20;;;6.10;;
70337;SDS011;57757;53.198;19.646;2023-06-26T12:34:12;8.00;;;5.70;;
70337;SDS011;57757;53.198;19.646;2023-06-26T12:36:43;8.50;;;5.00;;
70337;SDS011;57757;53.198;19.646;2023-06-26T12:39:10;7.60;;;5.40;;
70337;SDS011;57757;53.198;19.646;2023-06-26T12:44:22;8.90;;;5.70;;
70337;SDS011;57757;53.198;19.646;2023-06-26T12:46:53;7.90;;;5.60;;
70337;SDS011;57757;53.198;19.646;2023-06-26T12:49:28;7.00;;;4.60;;
70337;SDS011;57757;53.198;19.646;2023-06-26T12:51:58;7.40;;;4.40;;
70337;SDS011;57757;53.198;19.646;2023-06-26T12:54:26;6.60;;;4.70;;
70337;SDS011;57757;53.198;19.646;2023-06-26T12:56:53;6.60;;;4.60;;
70337;SDS011;57757;53.198;19.646;2023-06-26T12:59:20;6.70;;;4.80;;
70337;SDS011;57757;53.198;19.646;2023-06-26T13:01:47;7.00;;;4.50;;
70337;SDS011;57757;53.198;19.646;2023-06-26T13:04:13;7.60;;;4.90;;
70337;SDS011;57757;53.198;19.646;2023-06-26T13:06:40;8.90;;;5.90;;
70337;SDS011;57757;53.198;19.646;2023-06-26T13:09:06;6.90;;;5.70;;
70337;SDS011;57757;53.198;19.646;2023-06-26T13:11:32;12.20;;;6.90;;
70337;SDS011;57757;53.198;19.646;2023-06-26T13:13:59;8.30;;;6.20;;
70337;SDS011;57757;53.198;19.646;2023-06-26T13:16:37;10.60;;;7.30;;
70337;SDS011;57757;53.198;19.646;2023-06-26T13:19:03;12.00;;;7.40;;
70337;SDS011;57757;53.198;19.646;2023-06-26T13:21:29;15.70;;;9.20;;
70337;SDS011;57757;53.198;19.646;2023-06-26T13:23:55;7.10;;;5.90;;
70337;SDS011;57757;53.198;19.646;2023-06-26T13:26:22;10.80;;;7.80;;
70337;SDS011;57757;53.198;19.646;2023-06-26T13:29:02;12.70;;;7.60;;
70337;SDS011;57757;53.198;19.646;2023-06-26T13:31:29;8.20;;;6.60;;
70337;SDS011;57757;53.198;19.646;2023-06-26T13:33:56;8.60;;;7.70;;
70337;SDS011;57757;53.198;19.646;2023-06-26T13:36:24;9.10;;;8.00;;
70337;SDS011;57757;53.198;19.646;2023-06-26T13:38:50;8.90;;;7.00;;
70337;SDS011;57757;53.198;19.646;2023-06-26T13:41:22;7.60;;;6.50;;
70337;SDS011;57757;53.198;19.646;2023-06-26T13:43:48;7.80;;;7.00;;
70337;SDS011;57757;53.198;19.646;2023-06-26T13:46:15;8.20;;;7.40;;
70337;SDS011;57757;53.198;19.646;2023-06-26T13:48:42;9.80;;;8.30;;
70337;SDS011;57757;53.198;19.646;2023-06-26T13:51:08;9.00;;;8.00;;
70337;SDS011;57757;53.198;19.646;2023-06-26T13:53:34;10.10;;;9.20;;
70337;SDS011;57757;53.198;19.646;2023-06-26T13:56:00;10.40;;;9.40;;
70337;SDS011;57757;53.198;19.646;2023-06-26T13:58:26;9.70;;;8.70;;
70337;SDS011;57757;53.198;19.646;2023-06-26T14:00:54;9.60;;;8.80;;
70337;SDS011;57757;53.198;19.646;2023-06-26T14:03:20;11.10;;;10.10;;
70337;SDS011;57757;53.198;19.646;2023-06-26T14:05:46;10.30;;;9.40;;
70337;SDS011;57757;53.198;19.646;2023-06-26T14:08:13;12.50;;;11.40;;
70337;SDS011;57757;53.198;19.646;2023-06-26T14:10:39;11.50;;;10.50;;
70337;SDS011;57757;53.198;19.646;2023-06-26T14:13:07;10.80;;;9.90;;
70337;SDS011;57757;53.198;19.646;2023-06-26T14:15:34;11.80;;;10.90;;
70337;SDS011;57757;53.198;19.646;2023-06-26T14:18:01;15.40;;;11.60;;
70337;SDS011;57757;53.198;19.646;2023-06-26T14:20:28;11.30;;;10.30;;
70337;SDS011;57757;53.198;19.646;2023-06-26T14:22:54;12.20;;;11.20;;
70337;SDS011;57757;53.198;19.646;2023-06-26T14:25:21;13.30;;;12.20;;
70337;SDS011;57757;53.198;19.646;2023-06-26T14:27:47;13.20;;;12.10;;
70337;SDS011;57757;53.198;19.646;2023-06-26T14:30:13;12.80;;;11.80;;
70337;SDS011;57757;53.198;19.646;2023-06-26T14:32:39;12.30;;;11.30;;
70337;SDS011;57757;53.198;19.646;2023-06-26T14:35:06;12.90;;;11.70;;
70337;SDS011;57757;53.198;19.646;2023-06-26T14:37:33;12.80;;;11.80;;
70337;SDS011;57757;53.198;19.646;2023-06-26T14:40:01;13.30;;;12.30;;
70337;SDS011;57757;53.198;19.646;2023-06-26T14:42:29;16.80;;;15.60;;
70337;SDS011;57757;53.198;19.646;2023-06-26T14:44:55;13.70;;;12.70;;
70337;SDS011;57757;53.198;19.646;2023-06-26T14:47:21;15.80;;;14.60;;
70337;SDS011;57757;53.198;19.646;2023-06-26T14:49:47;13.30;;;12.30;;
70337;SDS011;57757;53.198;19.646;2023-06-26T14:52:14;15.50;;;14.40;;
70337;SDS011;57757;53.198;19.646;2023-06-26T14:54:40;13.60;;;12.50;;
70337;SDS011;57757;53.198;19.646;2023-06-26T14:57:06;16.20;;;15.00;;
70337;SDS011;57757;53.198;19.646;2023-06-26T14:59:33;14.90;;;13.60;;
70337;SDS011;57757;53.198;19.646;2023-06-26T15:01:59;15.70;;;14.50;;
70337;SDS011;57757;53.198;19.646;2023-06-26T15:04:25;13.20;;;12.20;;